Time;durP1;ratioP1;P1;durP2;ratioP2;P2;SDS_P1;SDS_P2;PMS_P1;PMS_P2;Temp;Humidity;BMP_temperature;BMP_pressure;BME280_temperature;BME280_humidity;BME280_pressure;Samples;Min_cycle;Max_cycle;Signal;HPM_P1;HPM_P2
2022/08/24 00:03:10;;;;;;;44.50;23.98;;;;;;;19.70;100.00;99158.30;4323257;80;21974;-83
2022/08/24 00:09:09;;;;;;;42.65;24.37;;;;;;;19.67;100.00;99156.38;4324709;81;21062;-84
2022/08/24 00:15:15;;;;;;;40.52;24.55;;;;;;;19.63;100.00;99146.73;4328119;81;21051;-84
2022/08/24 00:21:18;;;;;;;41.80;26.30;;;;;;;19.61;100.00;99141.42;4311852;81;20989;-83
2022/08/24 00:27:20;;;;;;;47.40;27.05;;;;;;;19.57;100.00;99152.63;4308620;81;21032;-84
2022/08/24 00:33:58;;;;;;;39.98;26.52;;;;;;;19.56;100.00;99148.90;4322567;81;20996;-83
2022/08/24 00:39:59;;;;;;;44.13;26.05;;;;;;;19.53;100.00;99151.15;4308042;81;20984;-83
2022/08/24 00:46:15;;;;;;;40.75;26.45;;;;;;;19.49;100.00;99154.00;4305638;81;20966;-84
2022/08/24 00:52:34;;;;;;;44.90;26.02;;;;;;;19.49;100.00;99165.10;4307399;81;20966;-83
2022/08/24 01:05:43;;;;;;;50.80;27.00;;;;;;;19.48;100.00;99161.37;4324812;81;21020;-83
2022/08/24 01:11:44;;;;;;;48.45;27.50;;;;;;;19.46;100.00;99164.58;4323168;80;21039;-83
2022/08/24 01:24:11;;;;;;;57.62;30.20;;;;;;;19.38;100.00;99174.27;4373205;79;21043;-83
2022/08/24 01:30:16;;;;;;;50.28;28.90;;;;;;;19.37;100.00;99176.84;4328894;80;21066;-84
2022/08/24 01:36:30;;;;;;;61.08;31.95;;;;;;;19.35;100.00;99175.12;4474234;78;21086;-83
2022/08/24 01:42:34;;;;;;;56.90;35.15;;;;;;;19.37;100.00;99180.25;4476829;78;21502;-83
2022/08/24 01:49:01;;;;;;;58.33;33.08;;;;;;;19.38;100.00;99181.20;4495204;77;21056;-84
2022/08/24 01:55:13;;;;;;;58.52;31.80;;;;;;;19.37;100.00;99199.05;4487187;78;21012;-84
2022/08/24 02:01:17;;;;;;;63.02;35.75;;;;;;;19.39;100.00;99202.79;4321083;80;21021;-84
2022/08/24 02:07:21;;;;;;;60.80;34.10;;;;;;;19.34;100.00;99199.15;4488963;78;21035;-84
2022/08/24 02:13:23;;;;;;;61.77;33.85;;;;;;;19.32;100.00;99202.36;4493888;77;21027;-84
2022/08/24 02:19:26;;;;;;;60.73;31.77;;;;;;;19.33;100.00;99209.46;4494163;78;21007;-84
2022/08/24 02:25:29;;;;;;;59.70;31.48;;;;;;;19.32;100.00;99220.40;4479379;78;20984;-84
2022/08/24 02:31:31;;;;;;;52.27;31.17;;;;;;;19.34;100.00;99225.52;4494046;78;21048;-83
2022/08/24 02:37:34;;;;;;;56.60;31.97;;;;;;;19.35;100.00;99222.91;4496812;78;20987;-83
2022/08/24 02:43:36;;;;;;;63.50;32.93;;;;;;;19.32;100.00;99209.30;4334395;80;20968;-83
2022/08/24 02:49:37;;;;;;;59.85;33.13;;;;;;;19.30;100.00;99204.77;4495085;77;21483;-83
2022/08/24 02:55:40;;;;;;;57.65;30.30;;;;;;;19.31;100.00;99219.44;4504079;77;20980;-83
2022/08/24 03:01:42;;;;;;;60.73;31.93;;;;;;;19.29;100.00;99215.70;4489984;77;21472;-84
2022/08/24 03:07:45;;;;;;;57.98;30.97;;;;;;;19.29;100.00;99217.69;4478497;77;20973;-83
2022/08/24 03:13:47;;;;;;;64.55;32.20;;;;;;;19.31;100.00;99222.98;4516007;78;21019;-83
2022/08/24 03:19:51;;;;;;;60.10;30.68;;;;;;;19.29;100.00;99229.58;4503204;78;20980;-83
2022/08/24 03:25:55;;;;;;;59.40;32.42;;;;;;;19.28;100.00;99230.77;4483838;78;21905;-84
2022/08/24 03:31:56;;;;;;;69.12;32.88;;;;;;;19.28;100.00;99234.94;4494101;78;21821;-83
2022/08/24 03:37:59;;;;;;;70.37;35.88;;;;;;;19.27;100.00;99227.80;4484945;78;20992;-83
2022/08/24 03:44:01;;;;;;;76.87;35.13;;;;;;;19.26;100.00;99226.84;4484508;77;20974;-83
2022/08/24 03:50:05;;;;;;;80.67;35.38;;;;;;;19.24;100.00;99233.41;4498457;78;20991;-83
2022/08/24 03:56:08;;;;;;;83.58;36.28;;;;;;;19.24;100.00;99234.80;4484815;77;20980;-83
2022/08/24 04:02:09;;;;;;;73.70;36.17;;;;;;;19.22;100.00;99235.83;4481121;78;21128;-83
2022/08/24 04:08:24;;;;;;;77.12;35.08;;;;;;;19.21;100.00;99228.72;4481541;78;21518;-83
2022/08/24 04:14:26;;;;;;;70.40;33.13;;;;;;;19.20;100.00;99227.16;4489057;78;21032;-84
2022/08/24 04:20:29;;;;;;;82.70;35.70;;;;;;;19.18;100.00;99228.98;4493351;77;20988;-84
2022/08/24 04:26:31;;;;;;;79.80;36.55;;;;;;;19.19;100.00;99229.74;4473783;78;20985;-84
2022/08/24 04:32:34;;;;;;;89.65;37.93;;;;;;;19.17;100.00;99221.84;4500534;78;21007;-84
2022/08/24 04:38:37;;;;;;;78.83;37.50;;;;;;;19.14;100.00;99221.31;4484796;78;21528;-84
2022/08/24 04:51:53;;;;;;;76.75;35.43;;;;;;;19.12;100.00;99225.11;4295749;80;20948;-84
2022/08/24 04:57:56;;;;;;;87.12;38.23;;;;;;;19.15;100.00;99224.28;4475373;78;20990;-84
2022/08/24 05:03:59;;;;;;;86.28;37.53;;;;;;;19.17;100.00;99230.17;4484982;78;21084;-85
2022/08/24 05:10:06;;;;;;;81.17;34.98;;;;;;;19.22;100.00;99231.66;4498818;78;21027;-84
2022/08/24 05:16:14;;;;;;;85.50;36.80;;;;;;;19.24;100.00;99219.53;4496024;77;21037;-84
2022/08/24 05:22:16;;;;;;;81.67;36.33;;;;;;;19.27;100.00;99220.86;4490506;77;20961;-84
2022/08/24 05:28:19;;;;;;;73.72;34.27;;;;;;;19.30;100.00;99221.42;4496633;77;21033;-85
2022/08/24 05:34:22;;;;;;;78.72;33.00;;;;;;;19.34;100.00;99226.28;4495932;78;20972;-85
2022/08/24 05:40:26;;;;;;;65.70;30.35;;;;;;;19.35;100.00;99230.64;4449499;78;21023;-85
2022/08/24 05:46:30;;;;;;;77.05;34.63;;;;;;;19.41;100.00;99222.58;4510452;78;21025;-84
2022/08/24 05:52:34;;;;;;;78.30;32.50;;;;;;;19.50;100.00;99240.23;4499908;77;20999;-85
2022/08/24 05:58:38;;;;;;;76.80;34.20;;;;;;;19.61;100.00;99248.33;4507902;77;20968;-85
2022/08/24 06:04:40;;;;;;;76.45;35.43;;;;;;;19.64;100.00;99252.43;4494583;77;20989;-84
2022/08/24 06:10:46;;;;;;;81.42;35.48;;;;;;;19.70;100.00;99259.04;4463625;78;20969;-85
2022/08/24 06:16:51;;;;;;;;;;;;;;;19.72;100.00;99257.22;4497463;78;21917;-86
2022/08/24 06:22:53;;;;;;;89.30;36.83;;;;;;;19.79;100.00;99258.47;4507749;78;20493;-85
2022/08/24 06:29:01;;;;;;;73.72;32.85;;;;;;;19.79;100.00;99258.47;4501088;78;21001;-84
2022/08/24 06:35:04;;;;;;;79.40;33.13;;;;;;;19.88;100.00;99254.50;4473693;77;21026;-86
2022/08/24 06:41:07;;;;;;;79.25;32.80;;;;;;;19.96;100.00;99259.47;4495411;78;20997;-86
2022/08/24 06:47:11;;;;;;;79.75;33.78;;;;;;;20.02;100.00;99260.52;4494443;78;20993;-85
2022/08/24 06:53:16;;;;;;;76.17;31.90;;;;;;;20.07;100.00;99266.17;4497788;78;20972;-85
2022/08/24 06:59:22;;;;;;;68.87;32.93;;;;;;;20.11;100.00;99267.66;4490860;77;20967;-85
2022/08/24 07:05:25;;;;;;;71.83;30.80;;;;;;;20.15;100.00;99285.05;4437155;77;21014;-85
2022/08/24 07:11:28;;;;;;;68.40;31.12;;;;;;;20.17;100.00;99279.09;4373473;79;20997;-86
2022/08/24 07:17:30;;;;;;;63.45;30.40;;;;;;;20.20;100.00;99280.38;4388320;79;21027;-85
2022/08/24 07:23:32;;;;;;;66.77;33.38;;;;;;;20.27;100.00;99302.27;4377526;78;22011;-86
2022/08/24 07:29:40;;;;;;;70.47;33.00;;;;;;;20.27;100.00;99293.33;4379669;80;20996;-85
2022/08/24 07:35:43;;;;;;;69.97;32.78;;;;;;;20.33;100.00;99301.95;4361180;80;21075;-85
2022/08/24 07:41:44;;;;;;;64.87;30.62;;;;;;;20.35;100.00;99295.33;4381095;79;21566;-84
2022/08/24 07:47:46;;;;;;;60.63;29.37;;;;;;;20.41;100.00;99295.77;4360395;80;21049;-85
2022/08/24 07:53:49;;;;;;;57.83;30.08;;;;;;;20.50;100.00;99304.29;4379107;79;22185;-85
2022/08/24 07:59:51;;;;;;;56.10;26.42;;;;;;;20.58;100.00;99309.09;4359522;79;21431;-85
2022/08/24 08:05:57;;;;;;;48.78;24.50;;;;;;;20.67;100.00;99309.27;4433679;77;21521;-85
2022/08/24 08:11:59;;;;;;;54.50;26.40;;;;;;;20.72;100.00;99297.63;4491481;78;21031;-86
2022/08/24 08:18:04;;;;;;;38.08;20.45;;;;;;;20.89;100.00;99302.72;4491908;78;20976;-85
2022/08/24 08:24:14;;;;;;;40.70;20.57;;;;;;;21.02;100.00;99304.21;4494973;77;20971;-85
2022/08/24 08:30:17;;;;;;;39.90;21.02;;;;;;;21.22;100.00;99312.61;4491153;77;20974;-85
2022/08/24 08:36:20;;;;;;;34.23;18.12;;;;;;;21.32;100.00;99328.27;4478344;77;21487;-85
2022/08/24 08:42:40;;;;;;;32.98;16.00;;;;;;;21.41;100.00;99324.83;4489081;77;20971;-86
2022/08/24 08:49:13;;;;;;;27.97;15.83;;;;;;;21.64;100.00;99317.64;4373267;78;21028;-85
2022/08/24 08:55:53;;;;;;;31.10;16.85;;;;;;;21.84;100.00;99322.45;4486685;78;21512;-85
2022/08/24 09:02:45;;;;;;;33.28;17.37;;;;;;;21.92;100.00;99318.25;4435268;78;21071;-85
2022/08/24 09:09:15;;;;;;;27.17;16.02;;;;;;;21.98;100.00;99324.83;4482627;78;21044;-85
2022/08/24 09:15:20;;;;;;;;;;;;;;;22.04;100.00;99326.44;4489332;77;21369;-86
2022/08/24 09:21:53;;;;;;;35.23;20.15;;;;;;;22.15;100.00;99323.52;4500301;78;20150;-86
2022/08/24 09:28:09;;;;;;;31.90;16.85;;;;;;;22.16;100.00;99322.91;4497319;77;20992;-87
2022/08/24 09:34:44;;;;;;;35.98;19.23;;;;;;;22.26;100.00;99331.55;4472432;78;21870;-86
2022/08/24 09:41:34;;;;;;;32.67;17.48;;;;;;;22.29;100.00;99318.89;4498978;77;22272;-87
2022/08/24 09:48:04;;;;;;;33.83;17.23;;;;;;;22.45;100.00;99311.82;4499452;77;21402;-86
2022/08/24 09:55:03;;;;;;;34.08;17.23;;;;;;;22.57;100.00;99300.50;4490369;77;21499;-86
2022/08/24 10:01:29;;;;;;;36.93;17.67;;;;;;;22.71;100.00;99295.24;4491512;77;20976;-86
2022/08/24 10:08:10;;;;;;;29.00;16.12;;;;;;;22.99;100.00;99288.70;4500705;78;21043;-85
2022/08/24 10:14:26;;;;;;;33.25;16.50;;;;;;;23.15;100.00;99294.73;4498348;77;21526;-86
2022/08/24 10:20:54;;;;;;;32.20;15.68;;;;;;;23.37;100.00;99300.37;4478246;77;21021;-86
2022/08/24 10:27:04;;;;;;;27.20;15.05;;;;;;;23.43;100.00;99303.54;4480809;77;20996;-86
2022/08/24 10:33:21;;;;;;;41.20;16.62;;;;;;;23.58;100.00;99310.20;4483503;78;20992;-86
2022/08/24 10:39:52;;;;;;;29.83;16.67;;;;;;;23.67;100.00;99299.07;4481023;77;20986;-86
2022/08/24 10:46:10;;;;;;;34.27;15.32;;;;;;;23.88;100.00;99304.48;4490095;77;21008;-86
2022/08/24 10:52:47;;;;;;;40.12;16.07;;;;;;;24.15;100.00;99309.64;4488280;77;20950;-87
2022/08/24 10:59:02;;;;;;;38.35;15.88;;;;;;;24.07;100.00;99302.75;4490159;77;20962;-87
2022/08/24 11:05:09;;;;;;;34.90;15.58;;;;;;;23.92;100.00;99305.91;4496920;77;20983;-87
2022/08/24 11:11:15;;;;;;;34.55;14.70;;;;;;;24.10;100.00;99297.64;4493791;78;21424;-87
2022/08/24 11:17:20;;;;;;;;;;;;;;;24.33;100.00;99290.77;4377381;79;21029;-86
2022/08/24 11:23:26;;;;;;;29.77;14.07;;;;;;;24.66;100.00;99282.05;4383526;80;20157;-87
2022/08/24 11:29:53;;;;;;;30.00;14.35;;;;;;;25.04;100.00;99281.04;4374525;80;20999;-86
2022/08/24 11:35:56;;;;;;;36.08;13.05;;;;;;;25.40;100.00;99284.50;4324047;80;21098;-86
2022/08/24 11:42:18;;;;;;;31.87;13.40;;;;;;;25.44;99.53;99274.69;4299163;81;21110;-87
2022/08/24 11:48:43;;;;;;;35.83;13.35;;;;;;;25.45;99.19;99275.47;4367160;80;21076;-87
2022/08/24 11:54:53;;;;;;;27.27;13.65;;;;;;;25.67;97.62;99277.44;4483388;78;21015;-87
2022/08/24 12:01:15;;;;;;;32.17;14.55;;;;;;;25.57;97.16;99271.10;4492717;77;21022;-86
2022/08/24 12:07:49;;;;;;;32.05;13.53;;;;;;;25.36;96.77;99279.05;4454303;78;21375;-87
2022/08/24 12:13:56;;;;;;;27.55;14.50;;;;;;;25.15;96.30;99286.17;4431043;78;20994;-86
2022/08/24 12:20:25;;;;;;;32.95;14.38;;;;;;;25.08;95.87;99282.27;4310787;81;22030;-87
2022/08/24 12:26:48;;;;;;;30.45;16.07;;;;;;;25.08;95.95;99283.05;4441050;78;21464;-86
2022/08/24 12:33:03;;;;;;;32.98;16.40;;;;;;;25.05;95.27;99288.80;4406940;79;21734;-86
2022/08/24 12:39:13;;;;;;;36.03;18.00;;;;;;;25.01;95.32;99284.74;4434894;78;21509;-87
2022/08/24 12:45:17;;;;;;;30.50;17.73;;;;;;;25.01;95.18;99290.34;4242714;82;21129;-86
2022/08/24 12:51:30;;;;;;;37.65;17.70;;;;;;;25.13;94.90;99284.45;4298753;80;21049;-86
2022/08/24 12:58:09;;;;;;;30.00;15.30;;;;;;;25.22;94.69;99280.25;4257617;82;21000;-86
2022/08/24 13:04:45;;;;;;;30.68;16.35;;;;;;;25.20;94.37;99276.52;4274435;81;21075;-87
2022/08/24 13:11:04;;;;;;;41.18;16.85;;;;;;;25.29;94.66;99278.55;4255294;81;21047;-87
2022/08/24 13:17:10;;;;;;;29.67;15.83;;;;;;;25.12;93.64;99279.47;4239884;81;21119;-86
2022/08/24 13:23:17;;;;;;;34.80;17.00;;;;;;;25.08;93.60;99272.47;4257248;82;21023;-87
2022/08/24 13:29:26;;;;;;;28.12;15.08;;;;;;;25.14;93.56;99250.38;4361982;78;20986;-87
2022/08/24 13:35:42;;;;;;;35.23;16.65;;;;;;;25.14;93.56;99250.38;4403832;79;21029;-86
2022/08/24 13:42:04;;;;;;;35.35;16.77;;;;;;;25.09;93.00;99245.39;4394182;79;20972;-86
2022/08/24 13:48:11;;;;;;;36.58;16.50;;;;;;;24.99;92.89;99237.45;4396516;79;21023;-85
2022/08/24 13:54:33;;;;;;;34.98;16.95;;;;;;;24.91;93.07;99227.80;4402474;79;20956;-86
2022/08/24 14:01:04;;;;;;;35.03;15.98;;;;;;;24.81;93.93;99199.66;4399454;79;20971;-87
2022/08/24 14:07:29;;;;;;;40.40;16.50;;;;;;;24.85;93.44;99212.87;4443635;78;21877;-85
2022/08/24 14:14:04;;;;;;;33.85;16.82;;;;;;;24.85;93.44;99212.87;4498362;78;21445;-87
2022/08/24 14:20:27;;;;;;;31.05;16.17;;;;;;;24.83;93.57;99209.74;4322119;80;21483;-87
2022/08/24 14:26:40;;;;;;;28.12;16.02;;;;;;;24.84;93.53;99195.28;4498508;78;20999;-86
2022/08/24 14:32:59;;;;;;;40.05;18.32;;;;;;;24.79;93.78;99185.34;4488474;78;20994;-87
2022/08/24 14:39:21;;;;;;;37.95;19.20;;;;;;;24.84;93.79;99191.08;4361793;80;20984;-86
2022/08/24 14:45:44;;;;;;;42.50;18.17;;;;;;;24.90;94.24;99190.61;4309384;80;21043;-85
2022/08/24 14:52:24;;;;;;;41.42;17.42;;;;;;;25.03;94.26;99196.84;4488510;78;20954;-86
2022/08/24 14:58:48;;;;;;;35.40;17.82;;;;;;;25.14;94.17;99201.35;4471137;77;20976;-87
2022/08/24 15:04:56;;;;;;;29.87;16.73;;;;;;;25.14;93.92;99214.57;4503441;77;20990;-86
2022/08/24 15:11:26;;;;;;;39.98;17.42;;;;;;;25.04;93.66;99226.42;4482883;78;21558;-86
2022/08/24 15:17:36;;;;;;;35.43;16.70;;;;;;;25.01;93.94;99222.38;4494130;78;21516;-86
2022/08/24 15:23:59;;;;;;;30.90;17.05;;;;;;;24.93;93.53;99214.12;4485608;78;21058;-86
2022/08/24 15:30:26;;;;;;;28.85;16.32;;;;;;;24.82;93.95;99214.59;4492051;78;20972;-86
2022/08/24 15:36:31;;;;;;;32.55;16.60;;;;;;;24.75;94.48;99200.09;4485183;77;21492;-86
2022/08/24 15:42:35;;;;;;;34.00;17.57;;;;;;;24.81;94.58;99208.81;4486339;77;20964;-86
2022/08/24 15:48:41;;;;;;;34.40;17.70;;;;;;;24.92;94.43;99216.13;4477441;78;21021;-87
2022/08/24 15:54:46;;;;;;;38.28;17.35;;;;;;;24.83;94.41;99218.14;4480038;77;21204;-86
2022/08/24 16:07:16;;;;;;;30.65;18.20;;;;;;;25.02;94.42;99226.72;4486222;78;21055;-87
2022/08/24 16:13:23;;;;;;;42.25;20.30;;;;;;;25.05;94.34;99211.78;4466735;78;20987;-87
2022/08/24 16:19:32;;;;;;;38.15;17.35;;;;;;;25.03;94.24;99216.45;4494520;77;21026;-87
2022/08/24 16:25:43;;;;;;;37.33;18.20;;;;;;;25.05;94.16;99199.97;4443222;78;21507;-87
2022/08/24 16:31:50;;;;;;;35.80;18.25;;;;;;;25.05;94.16;99211.17;4375351;77;9999885;-87
2022/08/24 16:37:54;;;;;;;43.83;19.32;;;;;;;24.99;94.20;99208.05;4482635;77;20983;-87
2022/08/24 16:43:55;;;;;;;18.77;5.87;;;;;;;24.76;93.85;99184.87;4494333;77;20996;-86
2022/08/24 16:49:57;;;;;;;17.20;5.70;;;;;;;24.50;92.09;99232.69;4432610;78;21070;-87
2022/08/24 16:55:59;;;;;;;16.45;4.12;;;;;;;24.19;91.27;99245.97;4396352;79;20997;-88
2022/08/24 17:02:01;;;;;;;16.40;3.92;;;;;;;23.90;90.46;99264.28;4392934;79;21027;-88
2022/08/24 17:08:04;;;;;;;18.73;4.42;;;;;;;23.49;90.17;99266.03;4259712;81;22207;-87
2022/08/24 17:14:05;;;;;;;12.78;4.60;;;;;;;23.27;90.27;99282.00;4228666;82;21539;-86
2022/08/24 17:20:09;;;;;;;23.18;5.15;;;;;;;23.08;90.29;99288.02;4243811;81;20979;-86
2022/08/24 17:26:14;;;;;;;16.87;5.17;;;;;;;22.84;90.63;99288.24;4371616;79;20996;-85
2022/08/24 17:32:16;;;;;;;15.85;4.45;;;;;;;22.73;91.13;99287.81;4361451;79;21041;-87
2022/08/24 17:38:17;;;;;;;15.45;4.78;;;;;;;22.59;91.21;99293.26;4366118;79;20995;-88
2022/08/24 17:44:24;;;;;;;18.73;5.55;;;;;;;22.43;91.45;99297.53;4369188;79;21519;-86
2022/08/24 17:50:27;;;;;;;14.63;4.35;;;;;;;22.26;91.53;99289.11;4375617;79;21977;-88
2022/08/24 17:56:36;;;;;;;17.77;4.40;;;;;;;21.97;91.98;99288.44;4376012;79;20964;-86
2022/08/24 18:02:40;;;;;;;17.25;4.70;;;;;;;21.92;92.64;99291.77;4378611;79;21543;-86
2022/08/24 18:08:41;;;;;;;21.82;4.30;;;;;;;21.80;92.55;99284.78;4388601;79;21082;-86
2022/08/24 18:14:43;;;;;;;11.55;4.37;;;;;;;21.65;92.53;99285.77;4371877;79;21000;-86
2022/08/24 18:20:45;;;;;;;15.53;4.58;;;;;;;21.50;92.89;99302.72;4371789;79;21953;-86
2022/08/24 18:26:47;;;;;;;13.58;4.60;;;;;;;21.45;93.10;99321.36;4369689;79;21376;-86
2022/08/24 18:32:49;;;;;;;16.17;4.75;;;;;;;21.36;93.71;99330.33;4364265;79;21025;-86
2022/08/24 18:38:51;;;;;;;18.40;5.28;;;;;;;21.35;94.26;99332.16;4369756;79;21038;-86
2022/08/24 18:44:53;;;;;;;16.05;5.62;;;;;;;21.18;94.49;99328.64;4282781;81;21013;-86
2022/08/24 18:50:56;;;;;;;25.85;5.17;;;;;;;21.10;95.37;99323.69;4223507;82;21003;-86
2022/08/24 18:56:57;;;;;;;16.75;5.80;;;;;;;21.03;95.97;99315.53;4362079;79;20987;-86
2022/08/24 19:03:03;;;;;;;20.55;5.53;;;;;;;21.01;96.43;99313.19;4370138;79;21467;-86
2022/08/24 19:09:04;;;;;;;16.48;5.05;;;;;;;20.98;96.37;99310.49;4374230;79;21983;-87
2022/08/24 19:15:07;;;;;;;15.20;4.55;;;;;;;20.83;96.32;99305.09;4397711;78;21799;-86
2022/08/24 19:21:08;;;;;;;13.75;4.92;;;;;;;20.75;96.56;99296.12;4304283;81;21985;-87
2022/08/24 19:27:10;;;;;;;21.62;7.85;;;;;;;20.63;96.55;99300.20;4238484;81;21838;-87
2022/08/24 19:33:18;;;;;;;14.18;5.92;;;;;;;20.51;96.83;99308.66;4366916;79;20992;-86
2022/08/24 19:39:19;;;;;;;16.05;5.47;;;;;;;20.50;97.35;99309.09;4352752;79;20986;-85
2022/08/24 19:51:44;;;;;;;20.52;6.22;;;;;;;20.36;97.95;99326.11;4385069;79;21027;-86
2022/08/24 19:58:01;;;;;;;21.90;6.95;;;;;;;20.32;98.36;99344.25;4395675;78;20976;-85
2022/08/24 20:04:06;;;;;;;19.98;6.47;;;;;;;20.28;98.17;99352.50;4394994;78;21020;-86
2022/08/24 20:10:08;;;;;;;24.72;6.53;;;;;;;20.23;98.89;99349.00;4394545;78;21000;-85
2022/08/24 20:16:14;;;;;;;16.50;5.70;;;;;;;20.16;98.72;99351.95;4403873;78;21027;-84
2022/08/24 20:22:15;;;;;;;11.25;5.40;;;;;;;20.15;99.86;99357.94;4401824;79;21413;-85
2022/08/24 20:28:17;;;;;;;14.18;5.53;;;;;;;20.19;100.00;99368.36;4395909;78;21089;-85
2022/08/24 20:34:18;;;;;;;20.37;5.65;;;;;;;20.13;100.00;99363.11;4387756;78;21025;-86
2022/08/24 20:40:22;;;;;;;17.25;5.85;;;;;;;20.02;100.00;99368.89;4396473;79;20992;-85
2022/08/24 20:46:25;;;;;;;16.60;6.00;;;;;;;20.00;100.00;99371.91;4405197;78;21027;-85
2022/08/24 20:52:27;;;;;;;16.10;6.20;;;;;;;19.87;100.00;99371.77;4402958;78;21034;-85
2022/08/24 20:58:28;;;;;;;16.52;6.25;;;;;;;19.77;100.00;99366.44;4398728;78;21039;-85
2022/08/24 21:04:29;;;;;;;14.50;6.05;;;;;;;19.73;100.00;99371.30;4402062;79;21564;-86
2022/08/24 21:10:31;;;;;;;13.58;5.97;;;;;;;19.71;100.00;99366.16;4397281;79;21045;-86
2022/08/24 21:16:38;;;;;;;19.77;5.53;;;;;;;19.69;100.00;99374.13;4398894;79;21033;-86
2022/08/24 21:22:40;;;;;;;10.88;4.97;;;;;;;19.66;100.00;99383.91;4398646;79;21044;-86
2022/08/24 21:28:42;;;;;;;14.25;4.95;;;;;;;19.52;100.00;99390.53;4390303;79;21012;-86
2022/08/24 21:34:44;;;;;;;16.07;5.30;;;;;;;19.39;100.00;99390.96;4370850;79;21058;-86
2022/08/24 21:40:45;;;;;;;16.20;5.55;;;;;;;19.34;100.00;99391.44;4375331;79;22247;-86
2022/08/24 21:46:48;;;;;;;12.88;5.22;;;;;;;19.34;100.00;99386.52;4390917;79;21035;-86
2022/08/24 21:52:50;;;;;;;12.43;5.03;;;;;;;19.37;100.00;99386.42;4379793;79;21066;-86
2022/08/24 21:58:52;;;;;;;16.40;5.00;;;;;;;19.24;100.00;99378.52;4366761;79;21037;-86
2022/08/24 22:04:55;;;;;;;15.28;5.58;;;;;;;19.16;100.00;99367.36;4372216;78;21614;-86
2022/08/24 22:10:56;;;;;;;15.43;5.33;;;;;;;19.10;100.00;99363.51;4377684;79;21041;-85
2022/08/24 22:16:58;;;;;;;13.88;5.22;;;;;;;18.92;100.00;99351.91;4362612;79;21042;-85
2022/08/24 22:23:00;;;;;;;16.10;6.12;;;;;;;18.90;100.00;99356.33;4371063;79;21005;-86
2022/08/24 22:29:08;;;;;;;16.40;4.58;;;;;;;18.95;100.00;99351.06;4283869;82;22255;-86
2022/08/24 22:35:10;;;;;;;15.75;5.08;;;;;;;18.89;100.00;99342.28;4364719;79;22008;-86
2022/08/24 22:41:13;;;;;;;17.00;5.05;;;;;;;18.81;100.00;99341.59;4338763;79;20974;-86
2022/08/24 22:47:15;;;;;;;12.20;5.33;;;;;;;18.78;100.00;99334.74;4367131;79;20979;-86
2022/08/24 22:53:16;;;;;;;11.20;5.15;;;;;;;18.79;100.00;99330.75;4379390;79;21524;-86
2022/08/24 22:59:30;;;;;;;14.07;5.90;;;;;;;18.71;100.00;99332.87;4364110;79;21539;-86
2022/08/24 23:05:31;;;;;;;12.43;4.75;;;;;;;18.60;100.00;99329.48;4364985;79;21861;-85
2022/08/24 23:11:36;;;;;;;16.45;5.28;;;;;;;18.52;100.00;99321.88;4367369;79;21536;-85
2022/08/24 23:17:37;;;;;;;13.10;4.75;;;;;;;18.41;100.00;99317.10;4344070;81;21045;-85
2022/08/24 23:23:38;;;;;;;14.25;5.33;;;;;;;18.36;100.00;99305.66;4352954;80;20989;-85
2022/08/24 23:29:41;;;;;;;11.68;5.37;;;;;;;18.36;100.00;99309.81;4349623;81;21052;-85
2022/08/24 23:35:42;;;;;;;10.43;5.72;;;;;;;18.35;100.00;99299.32;4261377;81;21065;-85
2022/08/24 23:41:45;;;;;;;9.28;5.08;;;;;;;18.30;100.00;99302.59;4230562;82;21056;-85
2022/08/24 23:47:47;;;;;;;10.43;5.08;;;;;;;18.24;100.00;99297.34;4228273;83;21043;-86
2022/08/24 23:53:50;;;;;;;17.65;6.30;;;;;;;18.09;100.00;99300.12;4245842;82;20989;-85
2022/08/24 23:59:54;;;;;;;11.73;5.60;;;;;;;18.06;100.00;99307.08;4235072;83;21008;-85
